Time;durP1;ratioP1;P1;durP2;ratioP2;P2;SDS_P1;SDS_P2;PMS_P1;PMS_P2;Temp;Humidity;BMP_temperature;BMP_pressure;BME280_temperature;BME280_humidity;BME280_pressure;Samples;Min_cycle;Max_cycle;Signal;HPM_P1;HPM_P2
2022/05/04 00:00:49;;;;;;;9.07;8.27;;;9.40;99.90;;;;;;4913275;29;20423;-73
2022/05/04 00:03:14;;;;;;;10.90;8.67;;;9.40;99.90;;;;;;4914058;29;20174;-72
2022/05/04 00:05:40;;;;;;;8.80;7.90;;;9.40;99.90;;;;;;4913964;29;20231;-74
2022/05/04 00:08:06;;;;;;;9.87;8.73;;;9.40;99.90;;;;;;4913175;29;20614;-72
2022/05/04 00:10:32;;;;;;;10.10;8.17;;;9.30;99.90;;;;;;4913402;29;20172;-73
2022/05/04 00:12:59;;;;;;;8.20;7.40;;;9.30;99.90;;;;;;4913874;29;20195;-73
2022/05/04 00:15:25;;;;;;;10.80;7.43;;;9.30;99.90;;;;;;4913550;29;20855;-71
2022/05/04 00:17:51;;;;;;;8.67;7.40;;;9.20;99.90;;;;;;4915108;29;20739;-72
2022/05/04 00:20:16;;;;;;;10.20;8.70;;;9.20;99.90;;;;;;4916721;29;20514;-71
2022/05/04 00:22:43;;;;;;;8.10;7.40;;;9.20;99.90;;;;;;4931206;29;20724;-71
2022/05/04 00:25:09;;;;;;;10.17;7.23;;;9.20;99.90;;;;;;4917340;29;20171;-73
2022/05/04 00:27:36;;;;;;;8.40;7.57;;;9.10;99.90;;;;;;4917354;29;20480;-73
2022/05/04 00:30:04;;;;;;;12.97;7.57;;;9.10;99.90;;;;;;4916812;29;20423;-73
2022/05/04 00:32:29;;;;;;;8.57;7.63;;;9.10;99.90;;;;;;4916272;29;20462;-73
2022/05/04 00:34:55;;;;;;;10.63;8.90;;;9.10;99.90;;;;;;4916653;29;20427;-73
2022/05/04 00:37:21;;;;;;;10.70;8.13;;;9.10;99.90;;;;;;4916879;29;20650;-73
2022/05/04 00:39:47;;;;;;;9.00;8.07;;;9.10;99.90;;;;;;4916745;29;20265;-74
2022/05/04 00:42:17;;;;;;;9.50;8.07;;;9.00;99.90;;;;;;4916204;29;20286;-74
2022/05/04 00:44:45;;;;;;;8.30;7.60;;;9.00;99.90;;;;;;4916791;29;20413;-72
2022/05/04 00:47:10;;;;;;;8.53;7.73;;;8.90;99.90;;;;;;4916139;29;20413;-72
2022/05/04 00:49:37;;;;;;;10.00;8.97;;;8.90;99.90;;;;;;4916824;29;20493;-72
2022/05/04 00:52:06;;;;;;;8.50;7.80;;;8.90;99.90;;;;;;4916019;29;20214;-70
2022/05/04 00:54:34;;;;;;;8.53;7.53;;;8.80;99.90;;;;;;4916683;29;20439;-72
2022/05/04 00:57:01;;;;;;;10.80;7.90;;;8.80;99.90;;;;;;4916711;29;20487;-73
2022/05/04 00:59:27;;;;;;;9.70;8.50;;;8.70;99.90;;;;;;4915848;29;20995;-72
2022/05/04 02:33:02;;;;;;;10.10;8.57;;;8.60;99.90;;;;;;5011979;23;20459;-74
2022/05/04 02:38:12;;;;;;;9.80;8.90;;;8.60;99.90;;;;;;4940031;29;20279;-73
2022/05/04 02:40:37;;;;;;;10.67;9.57;;;8.60;99.90;;;;;;4934157;29;20534;-73
2022/05/04 02:43:04;;;;;;;12.83;9.40;;;8.60;99.90;;;;;;4935165;29;20179;-73
2022/05/04 02:45:30;;;;;;;9.50;8.53;;;8.60;99.90;;;;;;4934768;29;20309;-73
2022/05/04 02:47:55;;;;;;;10.50;9.50;;;8.70;99.90;;;;;;4934759;29;20424;-72
2022/05/04 02:50:21;;;;;;;10.03;8.90;;;8.70;99.90;;;;;;4934663;29;20531;-73
2022/05/04 02:52:47;;;;;;;11.10;10.00;;;8.70;99.90;;;;;;4934443;29;20239;-73
2022/05/04 02:55:12;;;;;;;10.47;9.37;;;8.80;99.90;;;;;;4934615;29;20246;-73
2022/05/04 02:57:38;;;;;;;11.00;9.63;;;8.80;99.90;;;;;;4934479;29;20430;-73
2022/05/04 03:00:04;;;;;;;10.20;9.13;;;8.80;99.90;;;;;;4934653;29;20685;-73
2022/05/04 03:02:30;;;;;;;11.90;9.97;;;8.80;99.90;;;;;;4934408;29;20260;-73
2022/05/04 03:05:04;;;;;;;12.07;10.10;;;8.80;99.90;;;;;;4949310;28;20430;-73
2022/05/04 03:07:31;;;;;;;11.37;10.37;;;8.90;99.90;;;;;;4934349;29;20277;-73
2022/05/04 03:09:57;;;;;;;18.13;9.53;;;8.90;99.90;;;;;;4935598;29;20421;-73
2022/05/04 03:12:23;;;;;;;11.03;9.83;;;8.90;99.90;;;;;;4934478;29;20443;-73
2022/05/04 03:14:49;;;;;;;10.57;9.47;;;8.90;99.90;;;;;;4934343;29;20847;-73
2022/05/04 03:17:15;;;;;;;13.03;8.90;;;9.00;99.90;;;;;;4934574;29;20194;-73
2022/05/04 03:19:40;;;;;;;10.10;8.77;;;9.00;99.90;;;;;;4934139;29;20958;-71
2022/05/04 03:22:06;;;;;;;10.13;9.10;;;9.00;99.90;;;;;;4934057;29;20198;-73
2022/05/04 03:24:32;;;;;;;10.23;9.20;;;9.10;99.90;;;;;;4934046;29;20182;-72
2022/05/04 03:26:58;;;;;;;10.53;9.53;;;9.10;99.90;;;;;;4934325;29;20190;-73
2022/05/04 03:29:23;;;;;;;10.27;9.17;;;9.10;99.90;;;;;;4934349;29;20219;-72
2022/05/04 03:31:49;;;;;;;14.30;10.13;;;9.10;99.90;;;;;;4933753;29;20622;-72
2022/05/04 03:34:14;;;;;;;11.03;9.70;;;9.10;99.90;;;;;;4934097;29;20265;-72
2022/05/04 03:36:40;;;;;;;10.87;9.87;;;9.10;99.90;;;;;;4934049;29;20270;-73
2022/05/04 03:39:07;;;;;;;13.07;9.57;;;9.10;99.90;;;;;;4934217;29;20217;-72
2022/05/04 03:41:33;;;;;;;14.13;10.10;;;9.20;99.90;;;;;;4933762;29;20199;-73
2022/05/04 03:43:59;;;;;;;11.47;9.97;;;9.20;99.90;;;;;;4934101;29;20450;-73
2022/05/04 03:46:25;;;;;;;12.20;10.10;;;9.20;99.90;;;;;;4934133;29;20427;-72
2022/05/04 03:48:54;;;;;;;12.10;10.30;;;9.20;99.90;;;;;;4934089;29;20247;-73
2022/05/04 03:51:20;;;;;;;11.50;10.20;;;9.20;99.90;;;;;;4933787;29;20456;-72
2022/05/04 03:53:52;;;;;;;12.90;11.10;;;9.20;99.90;;;;;;4936488;29;20923;-73
2022/05/04 03:56:18;;;;;;;12.27;9.77;;;9.30;99.90;;;;;;4937719;29;20479;-73
2022/05/04 03:58:45;;;;;;;10.90;9.90;;;9.30;99.90;;;;;;4937894;29;20461;-73
2022/05/04 04:01:11;;;;;;;11.07;9.97;;;9.30;99.90;;;;;;4937402;29;20443;-74
2022/05/04 04:03:37;;;;;;;12.43;9.53;;;9.40;99.90;;;;;;4937667;29;20465;-75
2022/05/04 04:06:02;;;;;;;13.17;11.30;;;9.40;99.90;;;;;;4937597;29;20418;-72
2022/05/04 04:08:29;;;;;;;11.63;10.33;;;9.40;99.90;;;;;;4937694;29;20419;-71
2022/05/04 04:10:55;;;;;;;10.07;9.07;;;9.40;99.90;;;;;;4937401;29;20203;-71
2022/05/04 04:13:21;;;;;;;11.20;10.07;;;9.50;99.90;;;;;;4938370;29;20433;-71
2022/05/04 04:15:51;;;;;;;14.30;10.20;;;9.60;99.90;;;;;;4937324;29;20411;-72
2022/05/04 04:18:19;;;;;;;13.80;10.43;;;9.60;99.90;;;;;;4937560;29;20418;-72
2022/05/04 04:23:30;;;;;;;10.53;9.60;;;9.70;99.90;;;;;;4937259;29;20423;-72
2022/05/04 04:25:55;;;;;;;12.93;10.80;;;9.70;99.90;;;;;;4937556;29;21015;-72
2022/05/04 04:28:21;;;;;;;11.93;10.60;;;9.70;99.90;;;;;;4937605;29;20216;-72
2022/05/04 04:30:47;;;;;;;12.10;10.90;;;9.70;99.90;;;;;;4936966;29;20831;-73
2022/05/04 04:33:12;;;;;;;11.50;10.50;;;9.70;99.90;;;;;;4937326;29;20253;-71
2022/05/04 04:35:38;;;;;;;11.00;9.87;;;9.70;99.90;;;;;;4936936;29;20186;-72
2022/05/04 04:38:04;;;;;;;11.33;9.90;;;9.70;99.90;;;;;;4937338;29;20222;-73
2022/05/04 04:40:30;;;;;;;13.60;9.63;;;9.80;99.90;;;;;;4937258;29;20207;-72
2022/05/04 04:42:56;;;;;;;11.37;10.07;;;9.80;99.90;;;;;;4937066;29;20509;-73
2022/05/04 04:45:21;;;;;;;12.13;10.33;;;9.90;99.90;;;;;;4936851;29;20190;-72
2022/05/04 04:47:48;;;;;;;11.60;10.40;;;9.90;99.90;;;;;;4936914;29;20183;-73
2022/05/04 04:50:14;;;;;;;14.43;10.43;;;9.90;99.90;;;;;;4936969;29;20214;-73
2022/05/04 04:52:40;;;;;;;11.60;10.60;;;9.90;99.90;;;;;;4936380;29;20943;-73
2022/05/04 04:55:06;;;;;;;10.80;9.67;;;9.90;99.90;;;;;;4936914;29;20488;-72
2022/05/04 04:57:36;;;;;;;12.53;11.07;;;10.00;99.90;;;;;;4936631;29;20826;-72
2022/05/04 05:00:02;;;;;;;14.90;11.63;;;10.00;99.90;;;;;;4936625;29;20466;-72
2022/05/04 05:02:28;;;;;;;11.77;10.53;;;10.10;99.90;;;;;;4938288;29;20458;-72
2022/05/04 05:04:54;;;;;;;12.03;10.80;;;10.10;99.90;;;;;;4937294;29;20933;-72
2022/05/04 05:07:20;;;;;;;12.17;11.07;;;10.20;99.90;;;;;;4937532;29;20175;-72
2022/05/04 05:09:45;;;;;;;12.20;10.10;;;10.20;99.90;;;;;;4937137;29;20443;-72
2022/05/04 05:12:11;;;;;;;13.57;11.00;;;10.20;99.90;;;;;;4936412;29;20206;-72
2022/05/04 05:17:20;;;;;;;14.20;11.00;;;10.30;99.90;;;;;;4936697;29;20607;-71
2022/05/04 05:19:46;;;;;;;12.67;9.83;;;10.30;99.90;;;;;;4935711;29;20462;-70
2022/05/04 05:22:11;;;;;;;13.63;10.57;;;10.40;99.90;;;;;;4936047;29;20220;-71
2022/05/04 05:24:37;;;;;;;12.93;11.60;;;10.40;99.90;;;;;;4934935;29;20216;-72
2022/05/04 05:27:03;;;;;;;12.07;10.30;;;10.50;99.90;;;;;;4935946;29;20520;-72
2022/05/04 05:29:28;;;;;;;10.87;9.87;;;10.50;99.90;;;;;;4935526;29;20203;-72
2022/05/04 05:31:54;;;;;;;11.67;10.57;;;10.60;99.90;;;;;;4934992;29;20643;-72
2022/05/04 05:34:19;;;;;;;12.60;11.10;;;10.60;99.90;;;;;;4935879;29;20184;-71
2022/05/04 05:36:45;;;;;;;13.17;11.03;;;10.70;99.90;;;;;;4935857;29;20191;-72
2022/05/04 05:39:11;;;;;;;12.13;10.93;;;10.80;99.90;;;;;;4934990;29;20219;-71
2022/05/04 05:41:36;;;;;;;11.63;10.50;;;10.90;99.90;;;;;;4932675;29;20904;-72
2022/05/04 05:44:02;;;;;;;14.13;11.13;;;11.00;99.90;;;;;;4935038;29;20276;-71
2022/05/04 05:46:28;;;;;;;13.07;11.53;;;11.00;99.90;;;;;;4935544;29;20559;-70
2022/05/04 05:48:53;;;;;;;12.00;10.70;;;11.10;99.90;;;;;;4934779;29;20223;-72
2022/05/04 05:51:19;;;;;;;12.17;10.87;;;11.10;99.90;;;;;;4935077;29;20449;-72
2022/05/04 05:53:44;;;;;;;14.03;11.47;;;11.20;99.90;;;;;;4936014;29;20867;-72
2022/05/04 05:56:10;;;;;;;13.10;11.80;;;11.30;99.90;;;;;;4935685;29;20196;-73
2022/05/04 05:58:36;;;;;;;17.00;11.70;;;11.40;99.90;;;;;;4933347;29;20221;-72
2022/05/04 06:01:01;;;;;;;13.73;11.60;;;11.50;99.90;;;;;;4934772;29;20672;-72
2022/05/04 06:03:28;;;;;;;13.90;11.20;;;11.60;99.90;;;;;;4935746;29;20268;-72
2022/05/04 06:05:53;;;;;;;15.03;12.03;;;11.80;99.90;;;;;;4935081;29;20607;-72
2022/05/04 06:08:19;;;;;;;12.13;10.87;;;11.90;99.90;;;;;;4935444;29;20425;-72
2022/05/04 06:10:44;;;;;;;15.70;11.27;;;12.00;99.90;;;;;;4935007;29;20181;-72
2022/05/04 06:13:10;;;;;;;13.93;12.33;;;12.10;99.90;;;;;;4935817;29;20582;-72
2022/05/04 06:15:36;;;;;;;14.30;12.53;;;12.30;99.90;;;;;;4934346;29;20182;-73
2022/05/04 06:18:01;;;;;;;15.43;11.77;;;12.40;99.90;;;;;;4935396;29;20184;-70
2022/05/04 06:20:27;;;;;;;13.47;12.10;;;12.60;99.90;;;;;;4934749;29;20224;-71
2022/05/04 06:22:53;;;;;;;14.93;12.17;;;12.60;99.90;;;;;;4934809;29;20203;-71
2022/05/04 06:25:19;;;;;;;14.03;12.70;;;12.70;99.90;;;;;;4935033;29;20233;-71
2022/05/04 06:27:44;;;;;;;16.50;11.33;;;12.80;99.90;;;;;;4935050;29;20837;-70
2022/05/04 06:35:39;;;;;;;16.17;12.50;;;13.10;99.90;;;;;;4933621;29;20431;-71
2022/05/04 06:38:05;;;;;;;15.37;13.40;;;13.10;99.90;;;;;;4932162;29;20865;-71
2022/05/04 06:40:31;;;;;;;13.57;11.90;;;13.20;99.90;;;;;;4935608;29;20310;-71
2022/05/04 06:42:57;;;;;;;18.07;13.07;;;13.30;99.90;;;;;;4941633;29;20448;-71
2022/05/04 06:45:22;;;;;;;17.13;14.20;;;13.30;99.90;;;;;;4941227;28;20653;-72
2022/05/04 06:47:48;;;;;;;15.90;12.60;;;13.40;99.90;;;;;;4938460;29;20484;-71
2022/05/04 06:50:14;;;;;;;17.40;12.10;;;13.50;99.90;;;;;;4941829;29;20188;-71
2022/05/04 06:52:39;;;;;;;14.90;11.60;;;13.50;99.90;;;;;;4940898;29;20553;-71
2022/05/04 06:55:06;;;;;;;12.07;10.80;;;13.60;99.90;;;;;;4942275;29;20259;-71
2022/05/04 06:57:32;;;;;;;14.47;11.93;;;13.60;99.90;;;;;;4941263;28;20508;-71
2022/05/04 06:59:59;;;;;;;13.47;12.17;;;13.70;99.90;;;;;;4941169;29;21034;-71
2022/05/04 07:02:25;;;;;;;14.50;11.77;;;13.70;99.90;;;;;;4941630;29;20200;-71
2022/05/04 07:04:51;;;;;;;15.23;11.30;;;13.80;99.90;;;;;;4942914;28;20420;-71
2022/05/04 07:07:16;;;;;;;17.30;11.20;;;13.90;99.90;;;;;;4941470;29;20855;-71
2022/05/04 07:09:42;;;;;;;15.27;11.80;;;13.90;99.90;;;;;;4941343;29;20199;-70
2022/05/04 07:12:08;;;;;;;11.33;10.20;;;14.10;99.90;;;;;;4937932;29;20300;-71
2022/05/04 07:14:33;;;;;;;12.37;11.00;;;14.20;99.90;;;;;;4942728;29;20245;-71
2022/05/04 07:16:59;;;;;;;15.50;11.63;;;14.30;99.90;;;;;;4942323;29;21043;-71
2022/05/04 07:19:25;;;;;;;16.03;10.47;;;14.30;99.90;;;;;;4941558;29;20728;-72
2022/05/04 07:21:50;;;;;;;11.33;10.20;;;14.30;99.90;;;;;;4942155;29;20444;-71
2022/05/04 07:24:16;;;;;;;14.83;9.97;;;14.40;99.90;;;;;;4940382;29;20182;-71
2022/05/04 07:26:42;;;;;;;11.47;10.27;;;14.50;99.90;;;;;;4943759;29;20622;-71
2022/05/04 07:29:08;;;;;;;11.27;10.23;;;14.60;99.90;;;;;;4938949;29;20181;-70
2022/05/04 07:31:34;;;;;;;13.87;11.03;;;14.80;99.90;;;;;;4933456;29;20216;-71
2022/05/04 07:33:59;;;;;;;11.50;8.80;;;14.90;99.90;;;;;;4934546;29;20417;-71
2022/05/04 07:36:25;;;;;;;9.10;8.20;;;15.20;99.90;;;;;;4934027;29;20420;-71
2022/05/04 07:38:50;;;;;;;12.23;8.83;;;15.70;99.90;;;;;;4934026;29;20202;-71
2022/05/04 07:44:00;;;;;;;9.50;7.00;;;16.00;99.90;;;;;;4934171;29;20560;-71
2022/05/04 07:46:27;;;;;;;10.93;6.23;;;16.10;99.90;;;;;;4934024;29;20413;-71
2022/05/04 07:48:53;;;;;;;7.80;6.43;;;16.10;99.90;;;;;;4945248;28;20207;-71
2022/05/04 07:51:18;;;;;;;8.23;6.60;;;16.20;99.90;;;;;;4950970;28;20472;-72
2022/05/04 07:53:44;;;;;;;7.57;5.90;;;16.20;99.90;;;;;;4952314;28;20215;-71
2022/05/04 07:56:09;;;;;;;8.50;6.57;;;16.20;99.90;;;;;;4936802;28;20657;-71
2022/05/04 07:58:35;;;;;;;11.03;7.03;;;16.20;99.90;;;;;;4933636;29;20649;-70
2022/05/04 08:06:28;;;;;;;7.63;5.90;;;16.50;99.90;;;;;;4934065;29;20476;-71
2022/05/04 08:08:54;;;;;;;6.63;6.03;;;16.50;99.90;;;;;;4938630;29;20429;-71
2022/05/04 08:11:19;;;;;;;11.87;6.60;;;16.60;99.90;;;;;;4941180;29;20208;-71
2022/05/04 08:13:45;;;;;;;5.90;5.40;;;16.70;99.90;;;;;;4941153;29;20207;-71
2022/05/04 08:16:11;;;;;;;6.23;5.47;;;16.70;99.90;;;;;;4941666;29;20190;-71
2022/05/04 08:18:40;;;;;;;11.70;6.13;;;16.80;99.90;;;;;;4939903;29;20193;-71
2022/05/04 08:21:09;;;;;;;6.00;5.40;;;16.90;99.90;;;;;;4941538;29;20228;-71
2022/05/04 08:23:34;;;;;;;5.83;5.23;;;17.00;99.90;;;;;;4941161;29;20520;-72
2022/05/04 08:26:01;;;;;;;9.00;5.77;;;17.20;99.90;;;;;;4942238;29;20536;-71
2022/05/04 08:28:29;;;;;;;11.73;6.40;;;17.40;99.90;;;;;;4940767;28;20185;-70
2022/05/04 08:30:55;;;;;;;10.40;5.30;;;17.60;99.90;;;;;;4941332;29;20450;-71
2022/05/04 08:33:20;;;;;;;7.60;6.20;;;17.60;99.90;;;;;;4942226;28;20769;-72
2022/05/04 08:35:46;;;;;;;7.23;6.63;;;17.60;99.90;;;;;;4940894;28;20193;-71
2022/05/04 08:38:12;;;;;;;6.27;5.77;;;17.40;99.90;;;;;;4941882;28;20208;-71
2022/05/04 08:40:38;;;;;;;8.93;6.43;;;17.10;99.90;;;;;;4944501;29;20483;-70
2022/05/04 08:43:08;;;;;;;7.27;6.20;;;17.00;99.90;;;;;;4945626;29;20720;-71
2022/05/04 08:45:38;;;;;;;7.53;6.50;;;16.90;99.90;;;;;;4944652;29;20503;-71
2022/05/04 08:48:08;;;;;;;6.40;5.80;;;16.80;99.90;;;;;;4945309;29;20475;-71
2022/05/04 08:50:38;;;;;;;7.27;6.63;;;16.70;99.90;;;;;;4943844;29;20418;-70
2022/05/04 08:53:05;;;;;;;8.47;7.57;;;16.70;99.90;;;;;;4944676;29;20412;-71
2022/05/04 08:55:31;;;;;;;8.53;6.93;;;16.50;99.90;;;;;;4943468;29;20424;-71
2022/05/04 08:57:56;;;;;;;9.10;7.03;;;16.40;99.90;;;;;;4943795;29;20420;-71
2022/05/04 09:00:23;;;;;;;8.03;7.27;;;16.20;99.90;;;;;;4942872;29;20252;-71
2022/05/04 09:02:48;;;;;;;7.60;6.90;;;16.20;99.90;;;;;;4943263;29;20716;-70
2022/05/04 09:05:23;;;;;;;8.87;7.00;;;16.10;99.90;;;;;;4944834;28;20420;-71
2022/05/04 09:07:57;;;;;;;7.53;6.83;;;16.10;99.90;;;;;;4945410;29;20680;-71
2022/05/04 09:10:27;;;;;;;10.40;6.87;;;16.00;99.90;;;;;;4943249;29;20428;-71
2022/05/04 09:12:55;;;;;;;8.80;6.20;;;15.90;99.90;;;;;;4944544;29;20462;-69
2022/05/04 09:15:29;;;;;;;8.40;6.33;;;15.80;99.90;;;;;;4943375;29;20443;-71
2022/05/04 09:18:03;;;;;;;12.53;8.17;;;15.90;99.90;;;;;;4945193;29;20513;-70
2022/05/04 09:23:19;;;;;;;11.47;9.10;;;15.70;99.90;;;;;;4944350;29;20449;-71
2022/05/04 09:25:47;;;;;;;15.43;10.50;;;15.70;99.90;;;;;;4943632;28;21157;-71
2022/05/04 09:28:14;;;;;;;17.43;10.87;;;15.70;99.90;;;;;;4943251;29;20747;-71
2022/05/04 09:30:49;;;;;;;16.63;11.07;;;15.80;99.90;;;;;;4943447;29;20966;-70
2022/05/04 09:33:20;;;;;;;15.20;10.80;;;15.80;99.90;;;;;;4943908;29;20431;-72
2022/05/04 09:35:46;;;;;;;11.17;9.80;;;15.80;99.90;;;;;;4943308;29;20508;-70
2022/05/04 09:46:38;;;;;;;12.43;10.00;;;16.10;99.90;;;;;;4943378;29;20415;-70
2022/05/04 09:49:12;;;;;;;11.70;10.03;;;16.20;99.90;;;;;;4939126;28;20460;-70
2022/05/04 09:51:40;;;;;;;14.33;11.40;;;16.40;99.90;;;;;;4934804;28;20457;-71
2022/05/04 09:54:17;;;;;;;12.50;11.30;;;16.50;99.90;;;;;;4936493;29;20911;-70
2022/05/04 09:56:45;;;;;;;11.30;10.20;;;16.60;99.90;;;;;;4936361;29;20432;-71
2022/05/04 09:59:13;;;;;;;12.03;10.90;;;16.80;99.90;;;;;;4937338;29;20465;-71
2022/05/04 10:01:39;;;;;;;11.60;10.40;;;17.20;99.90;;;;;;4936421;29;20477;-71
2022/05/04 10:04:05;;;;;;;12.77;9.70;;;17.80;99.90;;;;;;4935056;29;20826;-70
2022/05/04 10:06:31;;;;;;;9.47;8.67;;;18.50;99.90;;;;;;4935111;29;20433;-70
2022/05/04 10:08:57;;;;;;;12.60;10.93;;;18.90;99.90;;;;;;4935447;29;20189;-72
2022/05/04 10:11:22;;;;;;;9.30;8.50;;;19.50;99.90;;;;;;4935006;29;20453;-71
2022/05/04 10:13:53;;;;;;;9.70;8.80;;;19.90;99.90;;;;;;4935850;28;20196;-71
2022/05/04 10:16:19;;;;;;;11.20;10.17;;;19.90;99.90;;;;;;4934700;29;20193;-71
2022/05/04 10:18:47;;;;;;;10.60;9.30;;;20.00;99.90;;;;;;4935521;29;20500;-71
2022/05/04 10:21:15;;;;;;;12.67;9.80;;;20.20;99.90;;;;;;4935001;29;20448;-71
2022/05/04 10:23:45;;;;;;;10.27;9.27;;;20.20;99.90;;;;;;4935363;29;20484;-71
2022/05/04 10:26:12;;;;;;;9.77;8.80;;;20.20;99.90;;;;;;4932444;29;20777;-71
2022/05/04 10:28:41;;;;;;;10.27;9.10;;;20.30;99.90;;;;;;4935239;29;20425;-72
2022/05/04 10:31:11;;;;;;;17.30;9.80;;;20.70;99.90;;;;;;4934248;29;20441;-70
2022/05/04 10:33:37;;;;;;;10.63;9.57;;;21.00;99.90;;;;;;4935871;29;20785;-71
2022/05/04 10:36:20;;;;;;;10.00;8.67;;;21.00;99.90;;;;;;4935932;29;21389;-70
2022/05/04 10:38:51;;;;;;;11.60;9.57;;;21.30;99.90;;;;;;4935586;29;20472;-71
2022/05/04 10:41:36;;;;;;;18.70;9.03;;;21.80;99.90;;;;;;4934201;29;20441;-71
2022/05/04 10:44:01;;;;;;;12.40;8.77;;;21.90;99.90;;;;;;4935532;29;20416;-71
2022/05/04 10:46:30;;;;;;;10.67;7.70;;;21.70;99.90;;;;;;4935422;29;20433;-70
2022/05/04 10:49:08;;;;;;;8.40;7.70;;;22.30;99.90;;;;;;4935016;29;20192;-71
2022/05/04 10:51:36;;;;;;;9.07;7.90;;;23.20;99.90;;;;;;4934665;29;20826;-72
2022/05/04 10:54:09;;;;;;;10.83;6.87;;;23.80;99.90;;;;;;4935096;29;20435;-71
2022/05/04 10:56:55;;;;;;;11.73;6.80;;;24.30;99.90;;;;;;4934242;29;20484;-72
2022/05/04 10:59:30;;;;;;;8.90;6.87;;;24.50;99.90;;;;;;4934093;29;20520;-71
2022/05/04 11:01:57;;;;;;;7.23;6.60;;;24.40;99.90;;;;;;4934675;29;20452;-72
2022/05/04 11:04:24;;;;;;;7.23;6.63;;;24.00;99.90;;;;;;4934007;28;20432;-73
2022/05/04 11:06:52;;;;;;;6.57;6.07;;;23.70;99.90;;;;;;4935701;28;20425;-72
2022/05/04 11:09:29;;;;;;;5.90;5.50;;;23.60;99.90;;;;;;4934247;29;20910;-74
2022/05/04 11:12:00;;;;;;;7.83;6.93;;;23.60;99.90;;;;;;4933626;29;20485;-73
2022/05/04 11:14:26;;;;;;;5.83;5.33;;;23.30;99.90;;;;;;4939483;29;20432;-74
2022/05/04 11:16:54;;;;;;;7.97;7.27;;;23.10;99.90;;;;;;4938373;28;20425;-74
2022/05/04 11:19:23;;;;;;;8.33;6.20;;;22.70;99.90;;;;;;4940938;29;20460;-73
2022/05/04 11:21:49;;;;;;;6.40;5.90;;;22.60;99.90;;;;;;4942203;29;21134;-74
2022/05/04 11:24:16;;;;;;;14.93;6.53;;;22.50;99.90;;;;;;4942837;28;20507;-73
2022/05/04 11:26:47;;;;;;;10.67;7.13;;;22.20;99.90;;;;;;4940314;29;20177;-72
2022/05/04 11:29:21;;;;;;;6.60;5.90;;;21.80;99.90;;;;;;4940688;29;20444;-73
2022/05/04 11:31:54;;;;;;;13.03;7.27;;;21.50;99.90;;;;;;4945196;28;20456;-73
2022/05/04 11:34:28;;;;;;;20.60;6.90;;;21.40;99.90;;;;;;4947526;29;20432;-73
2022/05/04 11:36:59;;;;;;;16.00;7.07;;;21.20;99.90;;;;;;4940351;29;20796;-73
2022/05/04 11:39:29;;;;;;;6.40;5.90;;;21.00;99.90;;;;;;4941636;29;20468;-73
2022/05/04 11:41:56;;;;;;;13.50;7.40;;;20.90;99.90;;;;;;4941590;29;20440;-73
2022/05/04 11:44:23;;;;;;;7.30;6.60;;;20.70;99.90;;;;;;4941638;28;20941;-72
2022/05/04 11:46:50;;;;;;;6.90;6.30;;;20.60;99.90;;;;;;4940881;29;20926;-72
2022/05/04 11:49:19;;;;;;;8.90;6.30;;;20.60;99.90;;;;;;4948280;29;20424;-72
2022/05/04 11:51:46;;;;;;;5.13;4.73;;;21.00;99.90;;;;;;4941320;29;21013;-74
2022/05/04 11:54:12;;;;;;;5.93;5.43;;;21.30;99.90;;;;;;4941119;29;20436;-75
2022/05/04 11:56:37;;;;;;;6.40;4.60;;;21.60;99.90;;;;;;4944176;28;20423;-74
2022/05/04 11:59:05;;;;;;;4.93;4.50;;;21.60;99.90;;;;;;4941476;28;20896;-73
2022/05/04 12:01:31;;;;;;;4.33;4.03;;;21.50;99.90;;;;;;4942914;29;20628;-75
2022/05/04 12:03:58;;;;;;;3.97;3.70;;;21.70;99.90;;;;;;4940673;29;20421;-73
2022/05/04 12:06:25;;;;;;;4.17;3.80;;;21.70;99.90;;;;;;4941955;29;20429;-74
2022/05/04 12:08:51;;;;;;;4.47;4.17;;;21.90;99.90;;;;;;4939950;28;20435;-73
2022/05/04 12:11:17;;;;;;;4.60;4.20;;;22.20;99.90;;;;;;4941512;28;20464;-73
2022/05/04 12:13:43;;;;;;;4.77;4.00;;;22.30;99.90;;;;;;4942552;28;20216;-73
2022/05/04 12:16:11;;;;;;;5.00;3.67;;;22.40;99.90;;;;;;4943968;28;20467;-73
2022/05/04 12:18:38;;;;;;;4.43;4.10;;;22.30;99.90;;;;;;4945268;28;20456;-73
2022/05/04 12:21:09;;;;;;;6.23;4.00;;;22.30;99.90;;;;;;4943895;28;20461;-73
2022/05/04 12:23:36;;;;;;;3.70;3.50;;;22.40;99.90;;;;;;4942433;29;20962;-72
2022/05/04 12:26:03;;;;;;;6.20;3.50;;;22.20;99.90;;;;;;4942134;28;20468;-73
2022/05/04 12:28:29;;;;;;;5.27;3.03;;;22.20;99.90;;;;;;4942722;28;20976;-72
2022/05/04 12:33:41;;;;;;;3.43;2.93;;;21.90;99.90;;;;;;4942746;29;20483;-72
2022/05/04 12:36:08;;;;;;;3.00;2.80;;;21.90;99.90;;;;;;4942575;28;20449;-73
2022/05/04 12:38:36;;;;;;;4.37;3.30;;;22.10;99.90;;;;;;4942149;29;20437;-72
2022/05/04 12:41:05;;;;;;;3.40;3.20;;;22.30;99.90;;;;;;4941734;28;20448;-72
2022/05/04 12:43:36;;;;;;;3.60;3.13;;;22.20;99.90;;;;;;4937912;28;20424;-73
2022/05/04 12:46:03;;;;;;;3.93;2.80;;;22.20;99.90;;;;;;4945720;28;20424;-73
2022/05/04 12:48:28;;;;;;;2.87;2.57;;;22.20;99.90;;;;;;4943504;28;20961;-73
2022/05/04 12:50:58;;;;;;;6.23;2.17;;;22.20;99.90;;;;;;4942276;29;20452;-73
2022/05/04 12:53:25;;;;;;;7.83;2.80;;;22.00;99.90;;;;;;4944942;28;20682;-73
2022/05/04 12:58:35;;;;;;;3.30;3.00;;;21.40;99.90;;;;;;4940491;29;20559;-73
2022/05/04 13:01:02;;;;;;;3.80;3.27;;;21.30;99.90;;;;;;4946064;28;21051;-72
2022/05/04 13:03:28;;;;;;;3.47;3.20;;;21.20;99.90;;;;;;4943510;28;20260;-72
2022/05/04 13:05:53;;;;;;;3.30;3.00;;;21.00;99.90;;;;;;4942853;29;20528;-73
2022/05/04 13:08:19;;;;;;;3.07;2.77;;;20.90;99.90;;;;;;4943181;29;20181;-73
2022/05/04 13:10:48;;;;;;;3.90;2.97;;;20.90;99.90;;;;;;4943031;29;20268;-73
2022/05/04 13:13:14;;;;;;;2.83;2.73;;;20.90;99.90;;;;;;4945904;28;20247;-73
2022/05/04 13:15:40;;;;;;;6.37;2.67;;;20.70;99.90;;;;;;4944564;29;20770;-73
2022/05/04 13:18:08;;;;;;;6.53;4.27;;;20.90;99.90;;;;;;4945782;29;20432;-73
2022/05/04 13:20:34;;;;;;;3.10;2.90;;;20.90;99.90;;;;;;4941933;29;20209;-72
2022/05/04 13:22:59;;;;;;;3.67;3.37;;;21.00;99.90;;;;;;4943163;29;20837;-73
2022/05/04 13:25:25;;;;;;;6.03;3.40;;;21.20;99.90;;;;;;4942989;28;20288;-73
2022/05/04 13:27:50;;;;;;;3.67;3.37;;;21.40;99.90;;;;;;4947718;29;20606;-73
2022/05/04 13:30:16;;;;;;;3.73;3.10;;;21.30;99.90;;;;;;4939417;28;20200;-73
2022/05/04 13:32:41;;;;;;;3.73;3.40;;;21.00;99.90;;;;;;4945062;28;20591;-73
2022/05/04 13:35:07;;;;;;;2.87;2.67;;;21.00;99.90;;;;;;4945440;28;20189;-72
2022/05/04 13:37:32;;;;;;;2.90;2.70;;;21.00;99.90;;;;;;4942091;29;20303;-73
2022/05/04 13:39:58;;;;;;;4.70;2.80;;;20.70;99.90;;;;;;4934581;29;20205;-73
2022/05/04 13:42:24;;;;;;;6.80;3.30;;;20.70;99.90;;;;;;4935546;29;20201;-73
2022/05/04 13:44:49;;;;;;;3.03;2.73;;;20.60;99.90;;;;;;4935869;29;20190;-73
2022/05/04 13:47:15;;;;;;;3.23;2.90;;;20.60;99.90;;;;;;4936026;29;20236;-72
2022/05/04 13:49:41;;;;;;;3.70;2.50;;;20.60;99.90;;;;;;4935603;29;20215;-73
2022/05/04 13:54:58;;;;;;;3.67;2.80;;;20.50;99.90;;;;;;4920403;29;20562;-71
2022/05/04 13:57:24;;;;;;;6.40;2.80;;;20.60;99.90;;;;;;4935724;29;20508;-73
2022/05/04 13:59:50;;;;;;;4.40;2.63;;;20.60;99.90;;;;;;4935698;29;20213;-73
2022/05/04 14:02:16;;;;;;;2.80;2.57;;;20.50;99.90;;;;;;4935345;29;20441;-73
2022/05/04 14:04:41;;;;;;;4.10;3.70;;;20.50;99.90;;;;;;4935564;29;20476;-73
2022/05/04 14:07:07;;;;;;;4.43;4.13;;;20.40;99.90;;;;;;4935448;29;20546;-73
2022/05/04 14:09:32;;;;;;;15.63;3.70;;;20.30;99.90;;;;;;4935210;29;20186;-71
2022/05/04 14:11:59;;;;;;;4.50;4.07;;;20.30;99.90;;;;;;4934951;29;20234;-72
2022/05/04 14:17:09;;;;;;;5.67;3.53;;;20.30;99.90;;;;;;4935631;29;20448;-73
2022/05/04 14:19:36;;;;;;;3.93;3.40;;;20.10;99.90;;;;;;4932570;29;20985;-72
2022/05/04 14:22:02;;;;;;;3.57;3.37;;;20.10;99.90;;;;;;4934743;29;20239;-72
2022/05/04 14:24:27;;;;;;;4.23;3.40;;;20.00;99.90;;;;;;4934694;29;20453;-73
2022/05/04 14:26:53;;;;;;;3.97;3.57;;;20.10;99.90;;;;;;4934995;29;20965;-73
2022/05/04 14:29:19;;;;;;;3.90;3.50;;;20.20;99.90;;;;;;4933924;29;20203;-72
2022/05/04 14:31:45;;;;;;;4.40;4.10;;;20.20;99.90;;;;;;4943254;28;20217;-73
2022/05/04 14:34:11;;;;;;;5.47;3.00;;;20.40;99.90;;;;;;4941215;29;20421;-72
2022/05/04 14:36:37;;;;;;;4.10;3.60;;;20.50;99.90;;;;;;4948260;28;20429;-72
2022/05/04 14:39:02;;;;;;;2.97;2.77;;;20.60;99.90;;;;;;4944154;28;20569;-72
2022/05/04 14:41:28;;;;;;;3.67;3.47;;;20.60;99.90;;;;;;4940604;28;20244;-72
2022/05/04 14:43:53;;;;;;;6.13;3.60;;;20.60;99.90;;;;;;4940335;29;20192;-72
2022/05/04 14:46:19;;;;;;;5.03;4.10;;;20.70;99.90;;;;;;4941652;29;20643;-72
2022/05/04 14:48:44;;;;;;;4.20;3.90;;;20.70;99.90;;;;;;4941863;28;20182;-73
2022/05/04 14:51:10;;;;;;;3.60;3.30;;;20.60;99.90;;;;;;4942954;29;20689;-73
2022/05/04 14:53:35;;;;;;;5.07;3.10;;;20.60;99.90;;;;;;4938025;29;20192;-73